sensor_id;sensor_type;location;lat;lon;timestamp;pressure;altitude;pressure_sealevel;temperature;humidity
22605;BME280;11469;49.024;8.246;2023-03-20T00:00:24;100686.25;;;9.32;100.00
22605;BME280;11469;49.024;8.246;2023-03-20T00:02:50;100682.16;;;9.30;100.00
22605;BME280;11469;49.024;8.246;2023-03-20T00:05:18;100684.97;;;9.30;100.00
22605;BME280;11469;49.024;8.246;2023-03-20T00:07:48;100697.78;;;9.31;100.00
22605;BME280;11469;49.024;8.246;2023-03-20T00:10:16;100692.19;;;9.31;100.00
22605;BME280;11469;49.024;8.246;2023-03-20T00:12:43;100693.00;;;9.31;100.00
22605;BME280;11469;49.024;8.246;2023-03-20T00:15:31;100692.88;;;9.28;100.00
22605;BME280;11469;49.024;8.246;2023-03-20T00:17:58;100685.88;;;9.22;100.00
22605;BME280;11469;49.024;8.246;2023-03-20T00:20:24;100683.44;;;9.20;100.00
22605;BME280;11469;49.024;8.246;2023-03-20T00:22:49;100692.16;;;9.19;100.00
22605;BME280;11469;49.024;8.246;2023-03-20T00:25:17;100696.13;;;9.18;100.00
22605;BME280;11469;49.024;8.246;2023-03-20T00:27:44;100688.69;;;9.22;100.00
22605;BME280;11469;49.024;8.246;2023-03-20T00:30:28;100692.03;;;9.15;100.00
22605;BME280;11469;49.024;8.246;2023-03-20T00:32:56;100691.09;;;9.11;100.00
22605;BME280;11469;49.024;8.246;2023-03-20T00:35:29;100690.63;;;9.09;100.00
22605;BME280;11469;49.024;8.246;2023-03-20T00:37:56;100697.22;;;9.05;100.00
22605;BME280;11469;49.024;8.246;2023-03-20T00:40:26;100700.72;;;9.02;100.00
22605;BME280;11469;49.024;8.246;2023-03-20T00:42:58;100695.00;;;8.98;100.00
22605;BME280;11469;49.024;8.246;2023-03-20T00:45:25;100700.16;;;8.96;100.00
22605;BME280;11469;49.024;8.246;2023-03-20T00:47:51;100707.38;;;8.97;100.00
22605;BME280;11469;49.024;8.246;2023-03-20T00:50:28;100703.50;;;9.02;100.00
22605;BME280;11469;49.024;8.246;2023-03-20T00:52:56;100711.56;;;9.03;100.00
22605;BME280;11469;49.024;8.246;2023-03-20T00:55:25;100711.09;;;9.01;100.00
22605;BME280;11469;49.024;8.246;2023-03-20T00:57:56;100708.75;;;9.03;100.00
22605;BME280;11469;49.024;8.246;2023-03-20T01:00:41;100699.09;;;9.01;100.00
22605;BME280;11469;49.024;8.246;2023-03-20T01:03:16;100704.34;;;9.02;100.00
22605;BME280;11469;49.024;8.246;2023-03-20T01:05:43;100703.16;;;9.03;100.00
22605;BME280;11469;49.024;8.246;2023-03-20T01:08:15;100708.06;;;9.06;100.00
22605;BME280;11469;49.024;8.246;2023-03-20T01:10:42;100705.28;;;9.06;100.00
22605;BME280;11469;49.024;8.246;2023-03-20T01:13:28;100700.38;;;9.03;100.00
22605;BME280;11469;49.024;8.246;2023-03-20T01:15:56;100701.44;;;9.11;100.00
22605;BME280;11469;49.024;8.246;2023-03-20T01:18:26;100702.34;;;9.03;100.00
22605;BME280;11469;49.024;8.246;2023-03-20T01:20:52;100706.78;;;9.04;100.00
22605;BME280;11469;49.024;8.246;2023-03-20T01:23:18;100705.97;;;9.03;100.00
22605;BME280;11469;49.024;8.246;2023-03-20T01:25:44;100702.81;;;9.05;100.00
22605;BME280;11469;49.024;8.246;2023-03-20T01:28:29;100704.47;;;9.06;100.00
22605;BME280;11469;49.024;8.246;2023-03-20T01:30:55;100710.53;;;9.08;100.00
22605;BME280;11469;49.024;8.246;2023-03-20T01:33:22;100712.03;;;9.05;100.00
22605;BME280;11469;49.024;8.246;2023-03-20T01:35:49;100713.53;;;9.03;100.00
22605;BME280;11469;49.024;8.246;2023-03-20T01:38:23;100714.69;;;9.02;100.00
22605;BME280;11469;49.024;8.246;2023-03-20T01:41:11;100722.88;;;9.07;100.00
22605;BME280;11469;49.024;8.246;2023-03-20T01:43:37;100722.53;;;9.08;100.00
22605;BME280;11469;49.024;8.246;2023-03-20T01:46:29;100728.47;;;9.07;100.00
22605;BME280;11469;49.024;8.246;2023-03-20T01:51:45;100726.50;;;9.07;100.00
22605;BME280;11469;49.024;8.246;2023-03-20T01:54:20;100725.19;;;9.05;100.00
22605;BME280;11469;49.024;8.246;2023-03-20T01:56:56;100730.44;;;9.06;100.00
22605;BME280;11469;49.024;8.246;2023-03-20T01:59:27;100726.97;;;9.09;100.00
22605;BME280;11469;49.024;8.246;2023-03-20T02:01:53;100735.34;;;9.09;100.00
22605;BME280;11469;49.024;8.246;2023-03-20T02:04:24;100735.69;;;9.08;100.00
22605;BME280;11469;49.024;8.246;2023-03-20T02:06:50;100737.81;;;9.11;100.00
22605;BME280;11469;49.024;8.246;2023-03-20T02:09:16;100744.91;;;9.08;100.00
22605;BME280;11469;49.024;8.246;2023-03-20T02:11:42;100741.75;;;9.10;100.00
22605;BME280;11469;49.024;8.246;2023-03-20T02:14:09;100731.72;;;9.09;100.00
22605;BME280;11469;49.024;8.246;2023-03-20T02:16:35;100736.72;;;9.03;100.00
22605;BME280;11469;49.024;8.246;2023-03-20T02:19:01;100734.59;;;9.00;100.00
22605;BME280;11469;49.024;8.246;2023-03-20T02:31:05;100737.88;;;9.02;100.00
22605;BME280;11469;49.024;8.246;2023-03-20T02:33:46;100740.13;;;9.09;100.00
22605;BME280;11469;49.024;8.246;2023-03-20T02:47:27;100744.53;;;8.97;100.00
22605;BME280;11469;49.024;8.246;2023-03-20T02:50:32;100752.66;;;8.90;100.00
22605;BME280;11469;49.024;8.246;2023-03-20T02:55:44;100757.50;;;8.81;100.00
22605;BME280;11469;49.024;8.246;2023-03-20T02:58:25;100754.22;;;8.79;100.00
22605;BME280;11469;49.024;8.246;2023-03-20T03:01:16;100749.91;;;8.82;100.00
22605;BME280;11469;49.024;8.246;2023-03-20T03:03:57;100747.13;;;8.82;100.00
22605;BME280;11469;49.024;8.246;2023-03-20T03:06:30;100745.00;;;8.79;100.00
22605;BME280;11469;49.024;8.246;2023-03-20T03:09:02;100753.25;;;8.75;100.00
22605;BME280;11469;49.024;8.246;2023-03-20T03:11:35;100753.59;;;8.74;100.00
22605;BME280;11469;49.024;8.246;2023-03-20T03:14:05;100752.66;;;8.70;100.00
22605;BME280;11469;49.024;8.246;2023-03-20T03:16:35;100758.22;;;8.70;100.00
22605;BME280;11469;49.024;8.246;2023-03-20T03:19:08;100755.44;;;8.70;100.00
22605;BME280;11469;49.024;8.246;2023-03-20T03:21:36;100755.56;;;8.73;100.00
22605;BME280;11469;49.024;8.246;2023-03-20T03:24:04;100760.34;;;8.73;100.00
22605;BME280;11469;49.024;8.246;2023-03-20T03:26:33;100764.78;;;8.74;100.00
22605;BME280;11469;49.024;8.246;2023-03-20T03:29:10;100764.78;;;8.74;100.00
22605;BME280;11469;49.024;8.246;2023-03-20T03:31:36;100768.72;;;8.73;100.00
22605;BME280;11469;49.024;8.246;2023-03-20T03:34:03;100761.50;;;8.72;100.00
22605;BME280;11469;49.024;8.246;2023-03-20T03:36:36;100762.81;;;8.74;100.00
22605;BME280;11469;49.024;8.246;2023-03-20T03:39:36;100751.97;;;8.73;100.00
22605;BME280;11469;49.024;8.246;2023-03-20T03:42:29;100751.81;;;8.69;100.00
22605;BME280;11469;49.024;8.246;2023-03-20T03:47:58;100741.47;;;8.70;100.00
22605;BME280;11469;49.024;8.246;2023-03-20T03:50:42;100742.50;;;8.65;100.00
22605;BME280;11469;49.024;8.246;2023-03-20T03:53:14;100747.59;;;8.63;100.00
22605;BME280;11469;49.024;8.246;2023-03-20T03:55:46;100747.13;;;8.61;100.00
22605;BME280;11469;49.024;8.246;2023-03-20T03:58:18;100743.97;;;8.62;100.00
22605;BME280;11469;49.024;8.246;2023-03-20T04:00:47;100750.09;;;8.56;100.00
22605;BME280;11469;49.024;8.246;2023-03-20T04:03:15;100752.44;;;8.54;100.00
22605;BME280;11469;49.024;8.246;2023-03-20T04:05:43;100763.53;;;8.62;100.00
22605;BME280;11469;49.024;8.246;2023-03-20T04:08:10;100756.66;;;8.60;100.00
22605;BME280;11469;49.024;8.246;2023-03-20T04:10:35;100754.69;;;8.60;100.00
22605;BME280;11469;49.024;8.246;2023-03-20T04:13:01;100762.25;;;8.60;100.00
22605;BME280;11469;49.024;8.246;2023-03-20T04:15:26;100763.53;;;8.62;100.00
22605;BME280;11469;49.024;8.246;2023-03-20T04:17:52;100769.28;;;8.66;100.00
22605;BME280;11469;49.024;8.246;2023-03-20T04:20:18;100778.81;;;8.65;100.00
22605;BME280;11469;49.024;8.246;2023-03-20T04:22:44;100771.38;;;8.69;100.00
22605;BME280;11469;49.024;8.246;2023-03-20T04:25:16;100781.75;;;8.69;100.00
22605;BME280;11469;49.024;8.246;2023-03-20T04:27:42;100788.16;;;8.69;100.00
22605;BME280;11469;49.024;8.246;2023-03-20T04:30:08;100795.19;;;8.75;100.00
22605;BME280;11469;49.024;8.246;2023-03-20T04:32:34;100799.13;;;8.74;100.00
22605;BME280;11469;49.024;8.246;2023-03-20T04:35:00;100791.09;;;8.73;100.00
22605;BME280;11469;49.024;8.246;2023-03-20T04:37:25;100790.41;;;8.76;100.00
22605;BME280;11469;49.024;8.246;2023-03-20T04:39:50;100793.53;;;8.74;100.00
22605;BME280;11469;49.024;8.246;2023-03-20T04:42:16;100788.44;;;8.76;100.00
22605;BME280;11469;49.024;8.246;2023-03-20T04:44:41;100781.81;;;8.81;100.00
22605;BME280;11469;49.024;8.246;2023-03-20T04:47:06;100784.63;;;8.81;100.00
22605;BME280;11469;49.024;8.246;2023-03-20T04:49:32;100778.34;;;8.84;100.00
22605;BME280;11469;49.024;8.246;2023-03-20T04:51:57;100782.78;;;8.85;100.00
22605;BME280;11469;49.024;8.246;2023-03-20T04:54:22;100779.16;;;8.84;100.00
22605;BME280;11469;49.024;8.246;2023-03-20T04:56:48;100783.59;;;8.85;100.00
22605;BME280;11469;49.024;8.246;2023-03-20T04:59:13;100778.34;;;8.84;100.00
22605;BME280;11469;49.024;8.246;2023-03-20T05:01:39;100789.38;;;8.80;100.00
22605;BME280;11469;49.024;8.246;2023-03-20T05:04:05;100793.97;;;8.85;100.00
22605;BME280;11469;49.024;8.246;2023-03-20T05:06:30;100788.66;;;8.92;100.00
22605;BME280;11469;49.024;8.246;2023-03-20T05:08:57;100792.13;;;8.89;100.00
22605;BME280;11469;49.024;8.246;2023-03-20T05:11:24;100785.72;;;8.88;100.00
22605;BME280;11469;49.024;8.246;2023-03-20T05:13:51;100787.56;;;8.84;100.00
22605;BME280;11469;49.024;8.246;2023-03-20T05:16:16;100781.97;;;8.84;100.00
22605;BME280;11469;49.024;8.246;2023-03-20T05:18:42;100790.97;;;8.90;100.00
22605;BME280;11469;49.024;8.246;2023-03-20T05:21:07;100788.50;;;8.88;100.00
22605;BME280;11469;49.024;8.246;2023-03-20T05:23:33;100788.16;;;8.90;100.00
22605;BME280;11469;49.024;8.246;2023-03-20T05:25:58;100791.78;;;8.90;100.00
22605;BME280;11469;49.024;8.246;2023-03-20T05:28:24;100788.31;;;8.93;100.00
22605;BME280;11469;49.024;8.246;2023-03-20T05:30:49;100791.44;;;8.92;100.00
22605;BME280;11469;49.024;8.246;2023-03-20T05:33:15;100789.59;;;8.96;100.00
22605;BME280;11469;49.024;8.246;2023-03-20T05:35:41;100793.56;;;8.95;100.00
22605;BME280;11469;49.024;8.246;2023-03-20T05:38:06;100797.50;;;8.94;100.00
22605;BME280;11469;49.024;8.246;2023-03-20T05:40:31;100803.44;;;8.92;100.00
22605;BME280;11469;49.024;8.246;2023-03-20T05:42:57;100802.28;;;8.93;100.00
22605;BME280;11469;49.024;8.246;2023-03-20T05:45:22;100801.94;;;8.95;100.00
22605;BME280;11469;49.024;8.246;2023-03-20T05:47:47;100803.09;;;8.94;100.00
22605;BME280;11469;49.024;8.246;2023-03-20T05:50:13;100798.81;;;8.96;100.00
22605;BME280;11469;49.024;8.246;2023-03-20T05:52:38;100804.16;;;9.02;100.00
22605;BME280;11469;49.024;8.246;2023-03-20T05:55:05;100793.13;;;9.05;100.00
22605;BME280;11469;49.024;8.246;2023-03-20T05:57:30;100795.44;;;9.03;100.00
22605;BME280;11469;49.024;8.246;2023-03-20T05:59:56;100794.63;;;9.03;100.00
22605;BME280;11469;49.024;8.246;2023-03-20T06:02:21;100805.13;;;9.06;100.00
22605;BME280;11469;49.024;8.246;2023-03-20T06:04:47;100803.97;;;9.07;100.00
22605;BME280;11469;49.024;8.246;2023-03-20T06:07:12;100810.72;;;9.06;100.00
22605;BME280;11469;49.024;8.246;2023-03-20T06:09:38;100820.75;;;9.07;100.00
22605;BME280;11469;49.024;8.246;2023-03-20T06:12:03;100820.06;;;9.10;100.00
22605;BME280;11469;49.024;8.246;2023-03-20T06:14:28;100822.50;;;9.11;100.00
22605;BME280;11469;49.024;8.246;2023-03-20T06:16:54;100815.22;;;9.19;100.00
22605;BME280;11469;49.024;8.246;2023-03-20T06:19:21;100814.25;;;9.15;100.00
22605;BME280;11469;49.024;8.246;2023-03-20T06:21:48;100823.59;;;9.19;100.00
22605;BME280;11469;49.024;8.246;2023-03-20T06:24:13;100836.34;;;9.28;100.00
22605;BME280;11469;49.024;8.246;2023-03-20T06:26:39;100835.88;;;9.26;100.00
22605;BME280;11469;49.024;8.246;2023-03-20T06:29:04;100833.09;;;9.26;100.00
22605;BME280;11469;49.024;8.246;2023-03-20T06:31:30;100847.41;;;9.25;100.00
22605;BME280;11469;49.024;8.246;2023-03-20T06:33:55;100842.16;;;9.23;100.00
22605;BME280;11469;49.024;8.246;2023-03-20T06:36:21;100847.19;;;9.30;100.00
22605;BME280;11469;49.024;8.246;2023-03-20T06:38:47;100850.19;;;9.25;100.00
22605;BME280;11469;49.024;8.246;2023-03-20T06:41:12;100854.63;;;9.26;100.00
22605;BME280;11469;49.024;8.246;2023-03-20T06:43:38;100855.13;;;9.28;100.00
22605;BME280;11469;49.024;8.246;2023-03-20T06:46:04;100861.53;;;9.28;100.00
22605;BME280;11469;49.024;8.246;2023-03-20T06:48:31;100858.88;;;9.32;100.00
22605;BME280;11469;49.024;8.246;2023-03-20T06:50:57;100867.72;;;9.34;100.00
22605;BME280;11469;49.024;8.246;2023-03-20T06:53:23;100865.69;;;9.43;100.00
22605;BME280;11469;49.024;8.246;2023-03-20T06:55:49;100869.31;;;9.44;100.00
22605;BME280;11469;49.024;8.246;2023-03-20T06:58:16;100875.34;;;9.46;100.00
22605;BME280;11469;49.024;8.246;2023-03-20T07:00:42;100867.44;;;9.48;100.00
22605;BME280;11469;49.024;8.246;2023-03-20T07:03:07;100875.59;;;9.53;100.00
22605;BME280;11469;49.024;8.246;2023-03-20T07:05:33;100880.25;;;9.49;100.00
22605;BME280;11469;49.024;8.246;2023-03-20T07:07:59;100874.09;;;9.55;100.00
22605;BME280;11469;49.024;8.246;2023-03-20T07:10:25;100869.06;;;9.49;100.00
22605;BME280;11469;49.024;8.246;2023-03-20T07:12:50;100870.22;;;9.48;100.00
22605;BME280;11469;49.024;8.246;2023-03-20T07:15:16;100874.31;;;9.50;100.00
22605;BME280;11469;49.024;8.246;2023-03-20T07:17:42;100865.91;;;9.50;100.00
22605;BME280;11469;49.024;8.246;2023-03-20T07:20:08;100869.41;;;9.47;100.00
22605;BME280;11469;49.024;8.246;2023-03-20T07:22:34;100870.66;;;9.38;100.00
22605;BME280;11469;49.024;8.246;2023-03-20T07:25:00;100869.66;;;9.42;100.00
22605;BME280;11469;49.024;8.246;2023-03-20T07:27:26;100868.00;;;9.41;100.00
22605;BME280;11469;49.024;8.246;2023-03-20T07:29:51;100855.53;;;9.39;100.00
22605;BME280;11469;49.024;8.246;2023-03-20T07:32:17;100866.38;;;9.40;100.00
22605;BME280;11469;49.024;8.246;2023-03-20T07:34:43;100864.63;;;9.48;100.00
22605;BME280;11469;49.024;8.246;2023-03-20T07:37:08;100872.81;;;9.53;100.00
22605;BME280;11469;49.024;8.246;2023-03-20T07:39:34;100857.09;;;9.60;100.00
22605;BME280;11469;49.024;8.246;2023-03-20T07:42:00;100859.47;;;9.71;100.00
22605;BME280;11469;49.024;8.246;2023-03-20T07:44:25;100867.56;;;9.84;100.00
22605;BME280;11469;49.024;8.246;2023-03-20T07:46:51;100865.03;;;9.91;100.00
22605;BME280;11469;49.024;8.246;2023-03-20T07:49:16;100865.25;;;9.98;100.00
22605;BME280;11469;49.024;8.246;2023-03-20T07:51:43;100856.97;;;10.02;100.00
22605;BME280;11469;49.024;8.246;2023-03-20T07:54:09;100860.25;;;10.04;100.00
22605;BME280;11469;49.024;8.246;2023-03-20T07:56:34;100871.31;;;10.01;100.00
22605;BME280;11469;49.024;8.246;2023-03-20T07:58:59;100872.03;;;9.97;100.00
22605;BME280;11469;49.024;8.246;2023-03-20T08:01:25;100872.84;;;9.98;100.00
22605;BME280;11469;49.024;8.246;2023-03-20T08:03:50;100876.31;;;9.95;100.00
22605;BME280;11469;49.024;8.246;2023-03-20T08:06:16;100880.53;;;10.01;100.00
22605;BME280;11469;49.024;8.246;2023-03-20T08:08:41;100873.56;;;10.07;100.00
22605;BME280;11469;49.024;8.246;2023-03-20T08:11:07;100881.53;;;10.17;100.00
22605;BME280;11469;49.024;8.246;2023-03-20T08:13:32;100883.09;;;10.27;100.00
22605;BME280;11469;49.024;8.246;2023-03-20T08:15:58;100888.13;;;10.34;100.00
22605;BME280;11469;49.024;8.246;2023-03-20T08:18:23;100900.97;;;10.35;100.00
22605;BME280;11469;49.024;8.246;2023-03-20T08:20:49;100895.47;;;10.26;100.00
22605;BME280;11469;49.024;8.246;2023-03-20T08:23:18;100889.97;;;10.29;100.00
22605;BME280;11469;49.024;8.246;2023-03-20T08:25:50;100897.78;;;10.24;100.00
22605;BME280;11469;49.024;8.246;2023-03-20T08:28:17;100897.66;;;10.20;100.00
22605;BME280;11469;49.024;8.246;2023-03-20T08:30:43;100899.09;;;10.26;100.00
22605;BME280;11469;49.024;8.246;2023-03-20T08:33:09;100902.09;;;10.21;100.00
22605;BME280;11469;49.024;8.246;2023-03-20T08:35:34;100904.00;;;10.29;100.00
22605;BME280;11469;49.024;8.246;2023-03-20T08:38:00;100898.72;;;10.40;100.00
22605;BME280;11469;49.024;8.246;2023-03-20T08:40:28;100898.84;;;10.44;98.58
22605;BME280;11469;49.024;8.246;2023-03-20T08:42:54;100910.66;;;10.37;99.20
22605;BME280;11469;49.024;8.246;2023-03-20T08:45:19;100913.81;;;10.36;98.70
22605;BME280;11469;49.024;8.246;2023-03-20T08:47:48;100911.34;;;10.34;99.40
22605;BME280;11469;49.024;8.246;2023-03-20T08:50:13;100917.78;;;10.35;98.58
22605;BME280;11469;49.024;8.246;2023-03-20T08:52:39;100916.75;;;10.39;99.39
22605;BME280;11469;49.024;8.246;2023-03-20T08:55:09;100912.31;;;10.38;98.65
22605;BME280;11469;49.024;8.246;2023-03-20T08:57:35;100917.09;;;10.38;98.19
22605;BME280;11469;49.024;8.246;2023-03-20T09:00:03;100908.31;;;10.27;97.45
22605;BME280;11469;49.024;8.246;2023-03-20T09:02:28;100921.03;;;10.24;97.35
22605;BME280;11469;49.024;8.246;2023-03-20T09:04:54;100921.03;;;10.24;96.96
22605;BME280;11469;49.024;8.246;2023-03-20T09:07:19;100925.94;;;10.27;97.17
22605;BME280;11469;49.024;8.246;2023-03-20T09:09:46;100932.13;;;10.33;96.46
22605;BME280;11469;49.024;8.246;2023-03-20T09:12:11;100924.91;;;10.32;96.72
22605;BME280;11469;49.024;8.246;2023-03-20T09:14:36;100940.88;;;10.32;96.23
22605;BME280;11469;49.024;8.246;2023-03-20T09:17:02;100934.59;;;10.35;96.26
22605;BME280;11469;49.024;8.246;2023-03-20T09:19:28;100937.47;;;10.26;96.43
22605;BME280;11469;49.024;8.246;2023-03-20T09:21:53;100944.16;;;10.34;96.05
22605;BME280;11469;49.024;8.246;2023-03-20T09:24:19;100932.81;;;10.42;96.79
22605;BME280;11469;49.024;8.246;2023-03-20T09:26:44;100934.94;;;10.45;95.53
22605;BME280;11469;49.024;8.246;2023-03-20T09:29:09;100941.59;;;10.53;94.85
22605;BME280;11469;49.024;8.246;2023-03-20T09:31:35;100936.00;;;10.65;95.10
22605;BME280;11469;49.024;8.246;2023-03-20T09:34:00;100946.53;;;10.80;94.42
22605;BME280;11469;49.024;8.246;2023-03-20T09:36:26;100940.44;;;10.90;94.21
22605;BME280;11469;49.024;8.246;2023-03-20T09:38:51;100932.16;;;10.94;92.49
22605;BME280;11469;49.024;8.246;2023-03-20T09:41:20;100939.72;;;11.18;92.98
22605;BME280;11469;49.024;8.246;2023-03-20T09:46:58;100948.88;;;11.55;89.84
22605;BME280;11469;49.024;8.246;2023-03-20T09:52:02;100939.41;;;11.87;87.49
22605;BME280;11469;49.024;8.246;2023-03-20T09:54:43;100935.94;;;12.06;85.96
22605;BME280;11469;49.024;8.246;2023-03-20T09:57:19;100934.97;;;12.14;83.16
22605;BME280;11469;49.024;8.246;2023-03-20T09:59:46;100940.06;;;12.24;83.14
22605;BME280;11469;49.024;8.246;2023-03-20T10:02:22;100939.72;;;12.26;81.45
22605;BME280;11469;49.024;8.246;2023-03-20T10:04:53;100925.47;;;12.35;81.65
22605;BME280;11469;49.024;8.246;2023-03-20T10:07:19;100935.09;;;12.65;81.68
22605;BME280;11469;49.024;8.246;2023-03-20T10:09:45;100934.56;;;12.75;79.16
22605;BME280;11469;49.024;8.246;2023-03-20T10:22:41;100919.13;;;12.69;77.10
22605;BME280;11469;49.024;8.246;2023-03-20T10:25:29;100924.00;;;12.88;76.44
22605;BME280;11469;49.024;8.246;2023-03-20T10:30:38;100920.44;;;13.22;73.41
22605;BME280;11469;49.024;8.246;2023-03-20T10:33:21;100919.00;;;13.48;72.25
22605;BME280;11469;49.024;8.246;2023-03-20T10:39:15;100900.56;;;13.70;69.13
22605;BME280;11469;49.024;8.246;2023-03-20T10:41:51;100920.03;;;13.78;68.67
22605;BME280;11469;49.024;8.246;2023-03-20T10:44:34;100909.25;;;14.03;68.26
22605;BME280;11469;49.024;8.246;2023-03-20T10:47:02;100898.56;;;14.12;66.03
22605;BME280;11469;49.024;8.246;2023-03-20T10:49:44;100900.56;;;14.35;66.54
22605;BME280;11469;49.024;8.246;2023-03-20T10:52:18;100899.91;;;14.41;65.06
22605;BME280;11469;49.024;8.246;2023-03-20T10:54:47;100913.47;;;14.13;64.84
22605;BME280;11469;49.024;8.246;2023-03-20T10:57:21;100896.59;;;13.93;63.49
22605;BME280;11469;49.024;8.246;2023-03-20T10:59:49;100904.56;;;14.11;64.55
22605;BME280;11469;49.024;8.246;2023-03-20T11:02:17;100900.38;;;14.01;63.44
22605;BME280;11469;49.024;8.246;2023-03-20T11:04:43;100897.63;;;14.05;63.57
22605;BME280;11469;49.024;8.246;2023-03-20T11:12:44;100890.97;;;14.58;60.81
22605;BME280;11469;49.024;8.246;2023-03-20T11:15:26;100896.69;;;14.66;59.13
22605;BME280;11469;49.024;8.246;2023-03-20T11:18:02;100887.66;;;14.53;59.27
22605;BME280;11469;49.024;8.246;2023-03-20T11:20:43;100898.13;;;14.33;59.86
22605;BME280;11469;49.024;8.246;2023-03-20T11:23:14;100903.13;;;14.20;61.44
22605;BME280;11469;49.024;8.246;2023-03-20T11:25:57;100890.59;;;14.18;61.74
22605;BME280;11469;49.024;8.246;2023-03-20T11:28:30;100899.13;;;14.21;62.11
22605;BME280;11469;49.024;8.246;2023-03-20T11:31:13;100891.09;;;14.23;62.56
22605;BME280;11469;49.024;8.246;2023-03-20T11:33:44;100885.03;;;14.21;61.20
22605;BME280;11469;49.024;8.246;2023-03-20T11:36:19;100883.09;;;14.25;61.36
22605;BME280;11469;49.024;8.246;2023-03-20T11:38:46;100883.59;;;14.31;62.27
22605;BME280;11469;49.024;8.246;2023-03-20T11:41:32;100885.84;;;14.22;60.57
22605;BME280;11469;49.024;8.246;2023-03-20T11:43:57;100879.06;;;14.26;59.79
22605;BME280;11469;49.024;8.246;2023-03-20T11:46:24;100876.66;;;14.48;60.37
22605;BME280;11469;49.024;8.246;2023-03-20T11:49:18;100881.38;;;14.63;58.87
22605;BME280;11469;49.024;8.246;2023-03-20T11:51:45;100883.56;;;14.50;58.21
22605;BME280;11469;49.024;8.246;2023-03-20T11:54:16;100880.09;;;14.38;59.21
22605;BME280;11469;49.024;8.246;2023-03-20T11:56:56;100883.44;;;14.43;58.88
22605;BME280;11469;49.024;8.246;2023-03-20T11:59:30;100879.97;;;14.31;59.34
22605;BME280;11469;49.024;8.246;2023-03-20T12:01:58;100871.13;;;14.32;57.83
22605;BME280;11469;49.024;8.246;2023-03-20T12:04:26;100874.16;;;14.43;58.13
22605;BME280;11469;49.024;8.246;2023-03-20T12:09:56;100861.94;;;14.58;58.40
22605;BME280;11469;49.024;8.246;2023-03-20T12:24:16;100841.25;;;14.77;57.80
22605;BME280;11469;49.024;8.246;2023-03-20T12:26:54;100850.06;;;14.72;58.65
22605;BME280;11469;49.024;8.246;2023-03-20T12:29:45;100833.88;;;14.69;58.59
22605;BME280;11469;49.024;8.246;2023-03-20T12:32:23;100828.63;;;14.93;58.14
22605;BME280;11469;49.024;8.246;2023-03-20T12:35:17;100831.22;;;15.06;56.72
22605;BME280;11469;49.024;8.246;2023-03-20T12:37:45;100827.25;;;15.10;56.31
22605;BME280;11469;49.024;8.246;2023-03-20T12:40:14;100820.63;;;15.29;56.59
22605;BME280;11469;49.024;8.246;2023-03-20T12:45:11;100805.13;;;15.46;53.80
22605;BME280;11469;49.024;8.246;2023-03-20T12:50:30;100803.91;;;15.47;52.93
22605;BME280;11469;49.024;8.246;2023-03-20T12:58:22;100807.38;;;15.33;54.14
22605;BME280;11469;49.024;8.246;2023-03-20T13:06:19;100798.50;;;15.35;53.09
22605;BME280;11469;49.024;8.246;2023-03-20T13:08:59;100802.41;;;15.23;52.67
22605;BME280;11469;49.024;8.246;2023-03-20T13:11:37;100794.25;;;15.18;52.88
22605;BME280;11469;49.024;8.246;2023-03-20T13:14:27;100786.56;;;15.15;53.16
22605;BME280;11469;49.024;8.246;2023-03-20T13:17:15;100784.09;;;15.10;53.03
22605;BME280;11469;49.024;8.246;2023-03-20T13:22:58;100784.53;;;15.12;52.74
22605;BME280;11469;49.024;8.246;2023-03-20T13:31:02;100787.38;;;14.85;52.99
22605;BME280;11469;49.024;8.246;2023-03-20T13:39:17;100775.00;;;14.93;54.38
22605;BME280;11469;49.024;8.246;2023-03-20T13:41:46;100779.34;;;14.87;53.26
22605;BME280;11469;49.024;8.246;2023-03-20T13:44:14;100778.25;;;14.96;53.52
22605;BME280;11469;49.024;8.246;2023-03-20T13:46:56;100784.56;;;14.85;52.89
22605;BME280;11469;49.024;8.246;2023-03-20T13:52:02;100768.06;;;14.87;54.03
22605;BME280;11469;49.024;8.246;2023-03-20T13:57:40;100762.72;;;15.12;54.29
22605;BME280;11469;49.024;8.246;2023-03-20T14:03:35;100751.44;;;15.12;53.59
22605;BME280;11469;49.024;8.246;2023-03-20T14:05:37;100767.81;;;15.00;53.36
22605;BME280;11469;49.024;8.246;2023-03-20T14:10:47;100765.34;;;14.94;53.78
22605;BME280;11469;49.024;8.246;2023-03-20T14:13:18;100761.66;;;14.90;53.68
22605;BME280;11469;49.024;8.246;2023-03-20T14:15:49;100755.19;;;14.90;53.33
22605;BME280;11469;49.024;8.246;2023-03-20T14:18:17;100751.72;;;15.00;53.07
22605;BME280;11469;49.024;8.246;2023-03-20T14:20:49;100753.09;;;14.83;52.95
22605;BME280;11469;49.024;8.246;2023-03-20T14:23:20;100752.72;;;14.85;54.28
22605;BME280;11469;49.024;8.246;2023-03-20T14:25:53;100740.66;;;14.88;54.20
22605;BME280;11469;49.024;8.246;2023-03-20T14:30:48;100758.94;;;14.98;53.26
22605;BME280;11469;49.024;8.246;2023-03-20T14:38:54;100750.66;;;14.82;53.25
22605;BME280;11469;49.024;8.246;2023-03-20T14:41:30;100753.94;;;14.87;53.26
22605;BME280;11469;49.024;8.246;2023-03-20T14:44:04;100753.38;;;14.75;52.53
22605;BME280;11469;49.024;8.246;2023-03-20T14:49:52;100745.19;;;14.96;53.08
22605;BME280;11469;49.024;8.246;2023-03-20T14:57:47;100737.84;;;14.88;53.58
22605;BME280;11469;49.024;8.246;2023-03-20T15:00:19;100735.41;;;14.86;54.06
22605;BME280;11469;49.024;8.246;2023-03-20T15:03:08;100750.75;;;14.89;52.79
22605;BME280;11469;49.024;8.246;2023-03-20T15:05:36;100744.53;;;14.76;52.90
22605;BME280;11469;49.024;8.246;2023-03-20T15:08:11;100740.84;;;14.72;52.98
22605;BME280;11469;49.024;8.246;2023-03-20T15:10:45;100743.66;;;14.72;52.65
22605;BME280;11469;49.024;8.246;2023-03-20T15:13:12;100747.25;;;14.69;52.72